Northfield, Massachusetts
Current Conditions -  °F | °C
As of 1:52 PM on Tuesday 21 Oct 2014 (Local Time) from KORE Reporting Station
Overcast Overcast  
Wind Chill: 58°   Ceiling: 4500
Heat Index: 58°   Visibility: 10mi
Dew Point: 49°   Wind: 6mph
Humidity: 72%   Direction: 310°NW
Pressure: 29.91"   Gusts: NA
Location:  42.71°N, 72.44°W
Report Text: KORE 211752Z AUTO 31005KT 10SM FEW029 BKN045 OVC100 14/09 A2991 RMK AO2 RAB37E49 SLP131 P0000 60000 T01440094 10144 20061 58016
Loading
Personal Weather Stations






























Interactive Weather Map
Tropical Storm Tracking
New forecast layout! Learn more

10-Day Weather Forecast

Advertisements
Track Severe Weather on mobile